MSC Kingston — VRPE9 — position and weather

sailwx.info

Track history (hours):
 
Tides and Currents Weather Stations Pressure Air Temp Water Temp Dewpoint Dewpoint Depression Visibility Wind Speed Wind Dir Waves Ship Positions

MSC Kingston

Last reported at 2018-Jun-20 20:38 UTC. Time now 2018-Jun-23 21:48 UTC.
Position N 19°45' W 096°10'.

Length 304 m; draft 11.2 m.

Type: Ship (hazmat cat D). MMSI: 477348500.

Date/timePositionNaut miles runAvg speedWind from/ knotsBaromVisibWave heightAir tempDewpointWater temp
2018-Jun-20 20:38N 19°45' W 096°10'315.2
2018-Jun-20 20:27N 19°43' W 096°09'815.3
2018-Jun-20 19:55N 19°35' W 096°05'615.3
2018-Jun-20 19:30N 19°29' W 096°02'815.2
2018-Jun-20 19:00N 19°23' W 095°59'714.9
2018-Jun-20 18:30N 19°15' W 095°58'612.3
2018-Jun-20 17:59N 19°11' W 096°03'4 8.8
2018-Jun-20 17:30N 19°12' W 096°07'1 1.2
2018-Jun-20 16:54N 19°13' W 096°08'0 0.0
2018-Jun-20 16:27N 19°13' W 096°08'0 0.0
2018-Jun-20 16:00N 19°13' W 096°08'0 0.0
2018-Jun-20 14:24N 19°13' W 096°08'0 0.0
2018-Jun-20 13:36N 19°13' W 096°08'0 0.0
2018-Jun-20 13:24N 19°13' W 096°08'0 0.0
2018-Jun-20 12:48N 19°13' W 096°08'0 0.0
2018-Jun-20 12:09N 19°13' W 096°08'0 0.0
2018-Jun-20 11:57N 19°13' W 096°08'0 0.0
2018-Jun-20 10:06N 19°13' W 096°08'0 0.0
2018-Jun-20 09:54N 19°13' W 096°08'0 0.0
2018-Jun-20 09:30N 19°13' W 096°08'0 0.0
2018-Jun-20 08:42N 19°13' W 096°08'0 0.0
2018-Jun-20 07:33N 19°13' W 096°08'0 0.1
2018-Jun-20 07:27N 19°13' W 096°08'0 0.0
2018-Jun-20 06:54N 19°13' W 096°08'0 0.0
2018-Jun-20 06:27N 19°13' W 096°08'0 0.0
2018-Jun-20 05:33N 19°13' W 096°08'0 0.1
2018-Jun-20 05:27N 19°13' W 096°08'0 0.0
2018-Jun-20 04:12N 19°13' W 096°08'0 0.0
2018-Jun-20 04:00N 19°13' W 096°08'0 0.0
2018-Jun-20 03:24N 19°13' W 096°08'0 0.0
2018-Jun-20 02:59N 19°13' W 096°08'0 0.4
2018-Jun-20 02:29N 19°12' W 096°08'4 7.6
2018-Jun-20 02:00N 19°11' W 096°04'510.1
2018-Jun-20 01:30N 19°14' W 095°59'510.2
2018-Jun-20 00:59N 19°16' W 095°55'3 6.8
2018-Jun-20 00:28N 19°18' W 095°51'1 1.4
2018-Jun-19 23:54N 19°17' W 095°51'1 1.3
2018-Jun-19 23:30N 19°17' W 095°50'1 1.1
2018-Jun-19 23:00N 19°17' W 095°50'0 0.9
2018-Jun-19 22:30N 19°17' W 095°49'0 0.5
2018-Jun-19 22:00N 19°17' W 095°49'1 1.8
2018-Jun-19 21:29N 19°17' W 095°48'4 9.0
2018-Jun-19 21:00N 19°18' W 095°44'712.7
2018-Jun-19 20:29N 19°20' W 095°37'713.5
2018-Jun-19 19:59N 19°24' W 095°31'40013.5
2018-Jun-18 14:25N 22°45' W 089°20'2715.0
2018-Jun-18 12:36N 22°48' W 088°51'514.6
2018-Jun-18 12:15N 22°49' W 088°45'51013.2
2018-Jun-16 21:33N 24°48' W 079°43'112.8
2018-Jun-16 21:30N 24°48' W 079°43'712.7
2018-Jun-16 20:58N 24°55' W 079°41'3211.9
2018-Jun-16 18:16N 25°27' W 079°36'511.8
2018-Jun-16 17:53N 25°31' W 079°36'411.6
2018-Jun-16 17:30N 25°36' W 079°37'611.5
2018-Jun-16 17:00N 25°41' W 079°38'611.4
2018-Jun-16 16:30N 25°47' W 079°39'611.3
2018-Jun-16 15:59N 25°53' W 079°39'511.3
2018-Jun-16 15:30N 25°58' W 079°41'612.3
2018-Jun-16 15:00N 26°00' W 079°47'611.8
2018-Jun-16 14:30N 26°03' W 079°53'612.4
2018-Jun-16 14:00N 26°05' W 079°60'510.8
2018-Jun-16 13:30N 26°06' W 080°06'1 2.4
2018-Jun-16 13:00N 26°05' W 080°07'1 1.8
2018-Jun-16 12:30N 26°04' W 080°07'0 0.0
2018-Jun-16 11:58N 26°04' W 080°07'0 0.0
2018-Jun-16 11:28N 26°04' W 080°07'0 0.0
2018-Jun-16 10:58N 26°04' W 080°07'0 0.0
2018-Jun-16 10:28N 26°04' W 080°07'0 0.0
2018-Jun-16 09:58N 26°04' W 080°07'0 0.0
2018-Jun-16 09:28N 26°04' W 080°07'0 0.0
2018-Jun-16 08:58N 26°04' W 080°07'0 0.0
2018-Jun-16 08:16N 26°04' W 080°07'0 0.0
2018-Jun-16 07:58N 26°04' W 080°07'0 0.0
2018-Jun-16 07:28N 26°04' W 080°07'0 0.0
2018-Jun-16 06:49N 26°04' W 080°07'0 0.0
2018-Jun-16 06:19N 26°04' W 080°07'0 0.0
2018-Jun-16 05:52N 26°04' W 080°07'0 0.0
2018-Jun-16 05:28N 26°04' W 080°07'0 0.0
2018-Jun-16 04:55N 26°04' W 080°07'0 0.0
2018-Jun-16 04:22N 26°04' W 080°07'0 0.0
2018-Jun-16 03:58N 26°04' W 080°07'0 0.0
2018-Jun-16 03:28N 26°04' W 080°07'0 0.0
2018-Jun-16 02:58N 26°04' W 080°07'0 0.0
2018-Jun-16 02:25N 26°04' W 080°07'0 0.0
2018-Jun-16 01:55N 26°04' W 080°07'0 0.0
2018-Jun-16 01:25N 26°04' W 080°07'0 0.0
2018-Jun-16 00:58N 26°04' W 080°07'0 0.0
2018-Jun-16 00:25N 26°04' W 080°07'0 0.0
2018-Jun-15 23:58N 26°04' W 080°07'0 0.0
2018-Jun-15 23:28N 26°04' W 080°07'0 0.0
2018-Jun-15 22:58N 26°04' W 080°07'0 0.0
2018-Jun-15 22:28N 26°04' W 080°07'0 0.0
2018-Jun-15 21:58N 26°04' W 080°07'0 0.0
2018-Jun-15 21:25N 26°04' W 080°07'0 0.0
2018-Jun-15 20:58N 26°04' W 080°07'0 0.0
2018-Jun-15 20:25N 26°04' W 080°07'0 0.0
2018-Jun-15 19:58N 26°04' W 080°07'0 0.0
2018-Jun-15 19:28N 26°04' W 080°07'0 0.0
2018-Jun-15 18:58N 26°04' W 080°07'0 0.0
2018-Jun-15 18:28N 26°04' W 080°07'0 0.0
2018-Jun-15 17:58N 26°04' W 080°07'0 0.0
2018-Jun-15 17:28N 26°04' W 080°07'0 0.0
2018-Jun-15 16:58N 26°04' W 080°07'0 0.0
2018-Jun-15 16:28N 26°04' W 080°07'0 0.0
2018-Jun-15 15:58N 26°04' W 080°07'0 0.0
2018-Jun-15 15:22N 26°04' W 080°07'0 0.0
2018-Jun-15 14:58N 26°04' W 080°07'0 0.0
2018-Jun-15 14:22N 26°04' W 080°07'0 0.0
2018-Jun-15 13:58N 26°04' W 080°07'0 0.0
2018-Jun-15 13:25N 26°04' W 080°07'0 0.0
2018-Jun-15 12:59N 26°04' W 080°07'0 0.0
2018-Jun-15 12:30N 26°04' W 080°07'1 1.2
2018-Jun-15 12:00N 26°05' W 080°07'1 2.2
2018-Jun-15 11:30N 26°06' W 080°06'4 8.5
2018-Jun-15 11:00N 26°06' W 080°01'2 4.4
2018-Jun-15 10:30N 26°07' W 079°59'4 7.4
2018-Jun-15 10:00N 26°10' W 079°56'4 8.0
2018-Jun-15 09:31N 26°12' W 079°53'4 7.5
2018-Jun-15 09:00N 26°15' W 079°50'4 7.2
2018-Jun-15 08:30N 26°17' W 079°47'4 7.2
2018-Jun-15 08:00N 26°19' W 079°43'2 3.7
2018-Jun-15 07:31N 26°20' W 079°43'3 6.5
2018-Jun-15 07:00N 26°22' W 079°40'3 6.8
2018-Jun-15 06:30N 26°25' W 079°37'1 1.5
2018-Jun-15 06:00N 26°25' W 079°36'8 2.9
2018-Jun-15 03:09N 26°17' W 079°36'0 3.0
2018-Jun-15 03:00N 26°16' W 079°36'1 3.0
2018-Jun-15 02:30N 26°15' W 079°36'2 3.3
2018-Jun-15 02:00N 26°13' W 079°37'2 3.4
2018-Jun-15 01:30N 26°12' W 079°37'0 0.6
2018-Jun-15 01:00N 26°12' W 079°37'714.9
2018-Jun-15 00:30N 26°15' W 079°30'42 2.8
2018-Jun-14 09:11N 26°31' W 078°46'0 0.0
2018-Jun-14 08:41N 26°31' W 078°46'0 0.0
2018-Jun-14 06:20N 26°31' W 078°46'  
Track history (hours):
 
Tides and Currents Weather Stations Pressure Air Temp Water Temp Dewpoint Dewpoint Depression Visibility Wind Speed Wind Dir Waves Ship Positions

MSC Kingston

Last reported at 2018-Jun-20 20:38 UTC. Time now 2018-Jun-23 21:48 UTC.
Position N 19°45' W 096°10'.

Length 304 m; draft 11.2 m.

Type: Ship (hazmat cat D). MMSI: 477348500.

Date/timePositionNaut miles runAvg speedWind from/ knotsBaromVisibWave heightAir tempDewpointWater temp
2018-Jun-20 20:38N 19°45' W 096°10'315.2
2018-Jun-20 20:27N 19°43' W 096°09'815.3
2018-Jun-20 19:55N 19°35' W 096°05'615.3
2018-Jun-20 19:30N 19°29' W 096°02'815.2
2018-Jun-20 19:00N 19°23' W 095°59'714.9
2018-Jun-20 18:30N 19°15' W 095°58'612.3
2018-Jun-20 17:59N 19°11' W 096°03'4 8.8
2018-Jun-20 17:30N 19°12' W 096°07'1 1.2
2018-Jun-20 16:54N 19°13' W 096°08'0 0.0
2018-Jun-20 16:27N 19°13' W 096°08'0 0.0
2018-Jun-20 16:00N 19°13' W 096°08'0 0.0
2018-Jun-20 14:24N 19°13' W 096°08'0 0.0
2018-Jun-20 13:36N 19°13' W 096°08'0 0.0
2018-Jun-20 13:24N 19°13' W 096°08'0 0.0
2018-Jun-20 12:48N 19°13' W 096°08'0 0.0
2018-Jun-20 12:09N 19°13' W 096°08'0 0.0
2018-Jun-20 11:57N 19°13' W 096°08'0 0.0
2018-Jun-20 10:06N 19°13' W 096°08'0 0.0
2018-Jun-20 09:54N 19°13' W 096°08'0 0.0
2018-Jun-20 09:30N 19°13' W 096°08'0 0.0
2018-Jun-20 08:42N 19°13' W 096°08'0 0.0
2018-Jun-20 07:33N 19°13' W 096°08'0 0.1
2018-Jun-20 07:27N 19°13' W 096°08'0 0.0
2018-Jun-20 06:54N 19°13' W 096°08'0 0.0
2018-Jun-20 06:27N 19°13' W 096°08'0 0.0
2018-Jun-20 05:33N 19°13' W 096°08'0 0.1
2018-Jun-20 05:27N 19°13' W 096°08'0 0.0
2018-Jun-20 04:12N 19°13' W 096°08'0 0.0
2018-Jun-20 04:00N 19°13' W 096°08'0 0.0
2018-Jun-20 03:24N 19°13' W 096°08'0 0.0
2018-Jun-20 02:59N 19°13' W 096°08'0 0.4
2018-Jun-20 02:29N 19°12' W 096°08'4 7.6
2018-Jun-20 02:00N 19°11' W 096°04'510.1
2018-Jun-20 01:30N 19°14' W 095°59'510.2
2018-Jun-20 00:59N 19°16' W 095°55'3 6.8
2018-Jun-20 00:28N 19°18' W 095°51'1 1.4
2018-Jun-19 23:54N 19°17' W 095°51'1 1.3
2018-Jun-19 23:30N 19°17' W 095°50'1 1.1
2018-Jun-19 23:00N 19°17' W 095°50'0 0.9
2018-Jun-19 22:30N 19°17' W 095°49'0 0.5
2018-Jun-19 22:00N 19°17' W 095°49'1 1.8
2018-Jun-19 21:29N 19°17' W 095°48'4 9.0
2018-Jun-19 21:00N 19°18' W 095°44'712.7
2018-Jun-19 20:29N 19°20' W 095°37'713.5
2018-Jun-19 19:59N 19°24' W 095°31'40013.5
2018-Jun-18 14:25N 22°45' W 089°20'2715.0
2018-Jun-18 12:36N 22°48' W 088°51'514.6
2018-Jun-18 12:15N 22°49' W 088°45'51013.2
2018-Jun-16 21:33N 24°48' W 079°43'112.8
2018-Jun-16 21:30N 24°48' W 079°43'712.7
2018-Jun-16 20:58N 24°55' W 079°41'3211.9
2018-Jun-16 18:16N 25°27' W 079°36'511.8
2018-Jun-16 17:53N 25°31' W 079°36'411.6
2018-Jun-16 17:30N 25°36' W 079°37'611.5
2018-Jun-16 17:00N 25°41' W 079°38'611.4
2018-Jun-16 16:30N 25°47' W 079°39'611.3
2018-Jun-16 15:59N 25°53' W 079°39'511.3
2018-Jun-16 15:30N 25°58' W 079°41'612.3
2018-Jun-16 15:00N 26°00' W 079°47'611.8
2018-Jun-16 14:30N 26°03' W 079°53'612.4
2018-Jun-16 14:00N 26°05' W 079°60'510.8
2018-Jun-16 13:30N 26°06' W 080°06'1 2.4
2018-Jun-16 13:00N 26°05' W 080°07'1 1.8
2018-Jun-16 12:30N 26°04' W 080°07'0 0.0
2018-Jun-16 11:58N 26°04' W 080°07'0 0.0
2018-Jun-16 11:28N 26°04' W 080°07'0 0.0
2018-Jun-16 10:58N 26°04' W 080°07'0 0.0
2018-Jun-16 10:28N 26°04' W 080°07'0 0.0
2018-Jun-16 09:58N 26°04' W 080°07'0 0.0
2018-Jun-16 09:28N 26°04' W 080°07'0 0.0
2018-Jun-16 08:58N 26°04' W 080°07'0 0.0
2018-Jun-16 08:16N 26°04' W 080°07'0 0.0
2018-Jun-16 07:58N 26°04' W 080°07'0 0.0
2018-Jun-16 07:28N 26°04' W 080°07'0 0.0
2018-Jun-16 06:49N 26°04' W 080°07'0 0.0
2018-Jun-16 06:19N 26°04' W 080°07'0 0.0
2018-Jun-16 05:52N 26°04' W 080°07'0 0.0
2018-Jun-16 05:28N 26°04' W 080°07'0 0.0
2018-Jun-16 04:55N 26°04' W 080°07'0 0.0
2018-Jun-16 04:22N 26°04' W 080°07'0 0.0
2018-Jun-16 03:58N 26°04' W 080°07'0 0.0
2018-Jun-16 03:28N 26°04' W 080°07'0 0.0
2018-Jun-16 02:58N 26°04' W 080°07'0 0.0
2018-Jun-16 02:25N 26°04' W 080°07'0 0.0
2018-Jun-16 01:55N 26°04' W 080°07'0 0.0
2018-Jun-16 01:25N 26°04' W 080°07'0 0.0
2018-Jun-16 00:58N 26°04' W 080°07'0 0.0
2018-Jun-16 00:25N 26°04' W 080°07'0 0.0
2018-Jun-15 23:58N 26°04' W 080°07'0 0.0
2018-Jun-15 23:28N 26°04' W 080°07'0 0.0
2018-Jun-15 22:58N 26°04' W 080°07'0 0.0
2018-Jun-15 22:28N 26°04' W 080°07'0 0.0
2018-Jun-15 21:58N 26°04' W 080°07'0 0.0
2018-Jun-15 21:25N 26°04' W 080°07'0 0.0
2018-Jun-15 20:58N 26°04' W 080°07'0 0.0
2018-Jun-15 20:25N 26°04' W 080°07'0 0.0
2018-Jun-15 19:58N 26°04' W 080°07'0 0.0
2018-Jun-15 19:28N 26°04' W 080°07'0 0.0
2018-Jun-15 18:58N 26°04' W 080°07'0 0.0
2018-Jun-15 18:28N 26°04' W 080°07'0 0.0
2018-Jun-15 17:58N 26°04' W 080°07'0 0.0
2018-Jun-15 17:28N 26°04' W 080°07'0 0.0
2018-Jun-15 16:58N 26°04' W 080°07'0 0.0
2018-Jun-15 16:28N 26°04' W 080°07'0 0.0
2018-Jun-15 15:58N 26°04' W 080°07'0 0.0
2018-Jun-15 15:22N 26°04' W 080°07'0 0.0
2018-Jun-15 14:58N 26°04' W 080°07'0 0.0
2018-Jun-15 14:22N 26°04' W 080°07'0 0.0
2018-Jun-15 13:58N 26°04' W 080°07'0 0.0
2018-Jun-15 13:25N 26°04' W 080°07'0 0.0
2018-Jun-15 12:59N 26°04' W 080°07'0 0.0
2018-Jun-15 12:30N 26°04' W 080°07'1 1.2
2018-Jun-15 12:00N 26°05' W 080°07'1 2.2
2018-Jun-15 11:30N 26°06' W 080°06'4 8.5
2018-Jun-15 11:00N 26°06' W 080°01'2 4.4
2018-Jun-15 10:30N 26°07' W 079°59'4 7.4
2018-Jun-15 10:00N 26°10' W 079°56'4 8.0
2018-Jun-15 09:31N 26°12' W 079°53'4 7.5
2018-Jun-15 09:00N 26°15' W 079°50'4 7.2
2018-Jun-15 08:30N 26°17' W 079°47'4 7.2
2018-Jun-15 08:00N 26°19' W 079°43'2 3.7
2018-Jun-15 07:31N 26°20' W 079°43'3 6.5
2018-Jun-15 07:00N 26°22' W 079°40'3 6.8
2018-Jun-15 06:30N 26°25' W 079°37'1 1.5
2018-Jun-15 06:00N 26°25' W 079°36'8 2.9
2018-Jun-15 03:09N 26°17' W 079°36'0 3.0
2018-Jun-15 03:00N 26°16' W 079°36'1 3.0
2018-Jun-15 02:30N 26°15' W 079°36'2 3.3
2018-Jun-15 02:00N 26°13' W 079°37'2 3.4
2018-Jun-15 01:30N 26°12' W 079°37'0 0.6
2018-Jun-15 01:00N 26°12' W 079°37'714.9
2018-Jun-15 00:30N 26°15' W 079°30'42 2.8
2018-Jun-14 09:11N 26°31' W 078°46'0 0.0
2018-Jun-14 08:41N 26°31' W 078°46'0 0.0
2018-Jun-14 06:20N 26°31' W 078°46'  

Dump ship's entire track history